Time;durP1;ratioP1;P1;durP2;ratioP2;P2;SDS_P1;SDS_P2;PMS_P1;PMS_P2;Temp;Humidity;BMP_temperature;BMP_pressure;BME280_temperature;BME280_humidity;BME280_pressure;Samples;Min_cycle;Max_cycle;Signal;HPM_P1;HPM_P2
2023/07/17 00:00:33;;;;;;;;;;;16.90;99.90;;;;;;7304794;19;9457;-73
2023/07/17 00:03:02;;;;;;;;;;;16.90;99.90;;;;;;7307896;19;9458;-73
2023/07/17 00:05:34;;;;;;;;;;;16.90;99.90;;;;;;7304504;19;9709;-72
2023/07/17 00:08:03;;;;;;;;;;;16.90;99.90;;;;;;7308091;19;9004;-72
2023/07/17 00:10:32;;;;;;;;;;;16.90;99.90;;;;;;7304595;19;10641;-72
2023/07/17 00:13:01;;;;;;;;;;;16.90;99.90;;;;;;7308171;19;9571;-73
2023/07/17 00:15:30;;;;;;;;;;;16.90;99.90;;;;;;7305723;19;11188;-72
2023/07/17 00:17:59;;;;;;;;;;;16.90;99.90;;;;;;7305345;19;9286;-72
2023/07/17 00:20:28;;;;;;;;;;;17.00;99.90;;;;;;7304986;19;9231;-72
2023/07/17 00:23:00;;;;;;;;;;;17.00;99.90;;;;;;7304230;19;9257;-72
2023/07/17 00:25:29;;;;;;;;;;;17.00;99.90;;;;;;7304180;19;9229;-73
2023/07/17 00:27:58;;;;;;;;;;;17.00;99.90;;;;;;7305654;19;9503;-72
2023/07/17 00:30:27;;;;;;;;;;;17.00;99.90;;;;;;7304803;19;10266;-73
2023/07/17 00:32:57;;;;;;;;;;;17.00;99.90;;;;;;7306124;19;9446;-73
2023/07/17 00:35:26;;;;;;;;;;;17.00;99.90;;;;;;7308778;19;9087;-72
2023/07/17 00:37:55;;;;;;;;;;;17.00;99.90;;;;;;7304903;19;9603;-73
2023/07/17 00:40:26;;;;;;;;;;;17.00;99.90;;;;;;7305283;19;9264;-72
2023/07/17 00:42:59;;;;;;;;;;;17.10;99.90;;;;;;7304839;19;11015;-72
2023/07/17 00:45:32;;;;;;;;;;;17.10;99.90;;;;;;7305961;19;9253;-72
2023/07/17 00:48:02;;;;;;;;;;;17.20;99.90;;;;;;7304809;19;9322;-72
2023/07/17 00:50:32;;;;;;;;;;;17.10;99.90;;;;;;7303139;19;9544;-72
2023/07/17 00:53:01;;;;;;;;;;;17.10;99.90;;;;;;7302130;19;10357;-72
2023/07/17 00:55:34;;;;;;;;;;;17.20;99.90;;;;;;7303474;19;9257;-72
2023/07/17 00:58:04;;;;;;;;;;;17.20;99.90;;;;;;7304146;19;11466;-72
2023/07/17 01:00:33;;;;;;;;;;;17.20;99.90;;;;;;7303262;19;9605;-72
2023/07/17 01:03:04;;;;;;;;;;;17.30;99.90;;;;;;7305200;19;10125;-72
2023/07/17 01:05:33;;;;;;;;;;;17.20;99.90;;;;;;7303678;19;9857;-73
2023/07/17 01:08:02;;;;;;;;;;;17.30;99.90;;;;;;7301981;19;9256;-72
2023/07/17 01:10:34;;;;;;;;;;;17.30;99.90;;;;;;7302967;19;9553;-72
2023/07/17 01:13:03;;;;;;;;;;;17.40;99.90;;;;;;7305617;19;9248;-74
2023/07/17 01:15:32;;;;;;;;;;;17.40;99.90;;;;;;7305546;19;9416;-73
2023/07/17 01:18:02;;;;;;;;;;;17.50;99.90;;;;;;7303534;19;9362;-72
2023/07/17 01:20:31;;;;;;;;;;;17.80;99.90;;;;;;7300475;19;9291;-72
2023/07/17 01:23:05;;;;;;;;;;;18.10;99.90;;;;;;7304133;19;9247;-72
2023/07/17 01:25:34;;;;;;;;;;;18.10;99.90;;;;;;7301557;19;9232;-72
2023/07/17 01:28:04;;;;;;;;;;;18.20;99.90;;;;;;7302189;19;10449;-72
2023/07/17 01:30:33;;;;;;;;;;;18.10;99.90;;;;;;7299531;19;9241;-72
2023/07/17 01:33:02;;;;;;;;;;;18.10;99.90;;;;;;7286970;19;9319;-72
2023/07/17 01:35:31;;;;;;;;;;;18.20;99.90;;;;;;7272568;19;11372;-72
2023/07/17 01:38:03;;;;;;;;;;;18.20;99.90;;;;;;7266713;19;9248;-72
2023/07/17 01:40:32;;;;;;;;;;;18.30;99.90;;;;;;7269305;19;9466;-72
2023/07/17 01:43:01;;;;;;;;;;;18.50;99.90;;;;;;7268239;19;9557;-73
2023/07/17 01:45:30;;;;;;;;;;;18.60;99.90;;;;;;7270761;19;9429;-72
2023/07/17 01:47:59;;;;;;;;;;;18.60;99.90;;;;;;7285558;19;12198;-73
2023/07/17 01:50:28;;;;;;;;;;;18.50;99.90;;;;;;7297531;19;10337;-72
2023/07/17 01:52:57;;;;;;;;;;;18.40;99.90;;;;;;7302460;19;9407;-72
2023/07/17 01:55:29;;;;;;;;;;;18.30;99.90;;;;;;7300963;19;9179;-73
2023/07/17 01:58:00;;;;;;;;;;;18.40;99.90;;;;;;7304991;19;9207;-72
2023/07/17 02:00:29;;;;;;;;;;;18.30;99.90;;;;;;7299239;19;10419;-72
2023/07/17 02:02:58;;;;;;;;;;;18.30;99.90;;;;;;7302686;19;9496;-72
2023/07/17 02:05:27;;;;;;;;;;;18.30;99.90;;;;;;7302159;19;11241;-72
2023/07/17 02:07:56;;;;;;;;;;;18.20;99.90;;;;;;7302261;19;9283;-73
2023/07/17 02:10:28;;;;;;;;;;;18.00;99.90;;;;;;7300975;19;8944;-73
2023/07/17 02:12:57;;;;;;;;;;;18.10;99.90;;;;;;7304012;19;9486;-73
2023/07/17 02:15:26;;;;;;;;;;;18.00;99.90;;;;;;7305457;19;9060;-72
2023/07/17 02:17:55;;;;;;;;;;;18.00;99.90;;;;;;7301431;19;8944;-73
2023/07/17 02:20:24;;;;;;;;;;;18.10;99.90;;;;;;7301678;19;10045;-73
2023/07/17 02:22:53;;;;;;;;;;;18.10;99.90;;;;;;7303474;19;9267;-72
2023/07/17 02:25:28;;;;;;;;;;;18.20;99.90;;;;;;7300214;19;8944;-73
2023/07/17 02:27:57;;;;;;;;;;;18.30;99.90;;;;;;7300815;19;8944;-73
2023/07/17 02:30:26;;;;;;;;;;;18.10;99.90;;;;;;7299848;19;9325;-73
2023/07/17 02:32:55;;;;;;;;;;;17.90;99.90;;;;;;7305135;19;11380;-73
2023/07/17 02:35:24;;;;;;;;;;;17.80;99.90;;;;;;7305259;19;11032;-73
2023/07/17 02:37:53;;;;;;;;;;;17.90;99.90;;;;;;7302202;19;9434;-73
2023/07/17 02:40:22;;;;;;;;;;;17.90;99.90;;;;;;7301787;19;9765;-73
2023/07/17 02:42:54;;;;;;;;;;;17.80;99.90;;;;;;7301890;19;9240;-73
2023/07/17 02:45:23;;;;;;;;;;;17.70;99.90;;;;;;7300417;19;9611;-73
2023/07/17 02:47:52;;;;;;;;;;;17.80;99.90;;;;;;7302836;19;9253;-72
2023/07/17 02:50:21;;;;;;;;;;;17.80;99.90;;;;;;7306806;19;9249;-73
2023/07/17 02:52:50;;;;;;;;;;;17.70;99.90;;;;;;7307809;19;11666;-72
2023/07/17 02:55:19;;;;;;;;;;;17.60;99.90;;;;;;7307344;19;9611;-72
2023/07/17 02:57:48;;;;;;;;;;;17.70;99.90;;;;;;7306256;19;9481;-72
2023/07/17 03:00:21;;;;;;;;;;;17.90;99.90;;;;;;7306608;19;8949;-72
2023/07/17 03:02:51;;;;;;;;;;;18.10;99.90;;;;;;7310044;19;9285;-72
2023/07/17 03:05:20;;;;;;;;;;;18.10;99.90;;;;;;7306340;19;9630;-72
2023/07/17 03:07:50;;;;;;;;;;;18.20;99.90;;;;;;7307904;19;9545;-72
2023/07/17 03:10:19;;;;;;;;;;;18.20;99.90;;;;;;7308738;19;8944;-72
2023/07/17 03:12:48;;;;;;;;;;;18.10;99.90;;;;;;7307019;19;9294;-72
2023/07/17 03:15:20;;;;;;;;;;;18.10;99.90;;;;;;7313432;19;9698;-73
2023/07/17 03:17:49;;;;;;;;;;;18.20;99.90;;;;;;7309021;19;9281;-72
2023/07/17 03:20:21;;;;;;;;;;;18.20;99.90;;;;;;7304724;19;9137;-72
2023/07/17 03:22:50;;;;;;;;;;;18.10;99.90;;;;;;7304917;19;9341;-72
2023/07/17 03:25:19;;;;;;;;;;;18.10;99.90;;;;;;7304973;19;9427;-72
2023/07/17 03:27:48;;;;;;;;;;;18.10;99.90;;;;;;7307109;19;11080;-72
2023/07/17 03:30:20;;;;;;;;;;;17.90;99.90;;;;;;7304942;19;9959;-72
2023/07/17 03:32:49;;;;;;;;;;;17.90;99.90;;;;;;7309491;19;9244;-72
2023/07/17 03:35:18;;;;;;;;;;;17.70;99.90;;;;;;7310938;19;9287;-72
2023/07/17 03:37:48;;;;;;;;;;;17.60;99.90;;;;;;7305543;19;9558;-72
2023/07/17 03:40:17;;;;;;;;;;;17.60;99.90;;;;;;7307080;19;9414;-72
2023/07/17 03:42:46;;;;;;;;;;;17.60;99.90;;;;;;7306040;19;9459;-72
2023/07/17 03:45:15;;;;;;;;;;;17.70;99.90;;;;;;7307159;19;8944;-72
2023/07/17 03:47:47;;;;;;;;;;;17.70;99.90;;;;;;7305716;19;9537;-72
2023/07/17 03:50:17;;;;;;;;;;;17.60;99.90;;;;;;7305137;19;10919;-72
2023/07/17 03:52:46;;;;;;;;;;;17.50;99.90;;;;;;7304998;19;9280;-72
2023/07/17 03:55:15;;;;;;;;;;;17.40;99.90;;;;;;7306327;19;9432;-72
2023/07/17 03:57:44;;;;;;;;;;;17.30;99.90;;;;;;7304521;19;10437;-72
2023/07/17 04:00:16;;;;;;;;;;;17.20;99.90;;;;;;7306147;19;9038;-72
2023/07/17 04:02:48;;;;;;;;;;;17.20;99.90;;;;;;7306444;19;9674;-73
2023/07/17 04:05:17;;;;;;;;;;;17.10;99.90;;;;;;7306478;19;9871;-72
2023/07/17 04:07:46;;;;;;;;;;;17.10;99.90;;;;;;7304224;19;9395;-72
2023/07/17 04:10:15;;;;;;;;;;;17.10;99.90;;;;;;7304823;19;9277;-72
2023/07/17 04:12:44;;;;;;;;;;;17.00;99.90;;;;;;7304418;19;9556;-72
2023/07/17 04:15:13;;;;;;;;;;;17.10;99.90;;;;;;7311148;19;9467;-72
2023/07/17 04:17:42;;;;;;;;;;;17.10;99.90;;;;;;7305556;19;9461;-72
2023/07/17 04:20:16;;;;;;;;;;;17.10;99.90;;;;;;7303928;19;9550;-72
2023/07/17 04:22:45;;;;;;;;;;;17.00;99.90;;;;;;7300814;19;9244;-72
2023/07/17 04:25:14;;;;;;;;;;;17.10;99.90;;;;;;7306102;19;9378;-72
2023/07/17 04:27:42;;;;;;;;;;;17.00;99.90;;;;;;7304437;19;9720;-72
2023/07/17 04:30:12;;;;;;;;;;;17.00;99.90;;;;;;7304831;19;10041;-72
2023/07/17 04:32:41;;;;;;;;;;;17.00;99.90;;;;;;7305637;19;11483;-72
2023/07/17 04:35:13;;;;;;;;;;;16.90;99.90;;;;;;7309469;19;9827;-72
2023/07/17 04:37:43;;;;;;;;;;;17.00;99.90;;;;;;7304553;19;10917;-72
2023/07/17 04:40:15;;;;;;;;;;;17.00;99.90;;;;;;7305911;19;10158;-72
2023/07/17 04:42:44;;;;;;;;;;;16.90;99.90;;;;;;7303446;19;9236;-72
2023/07/17 04:45:15;;;;;;;;;;;17.00;99.90;;;;;;7302010;19;9645;-72
2023/07/17 04:47:44;;;;;;;;;;;17.00;99.90;;;;;;7303187;19;10683;-72
2023/07/17 04:50:16;;;;;;;;;;;17.00;99.90;;;;;;7305062;19;9479;-72
2023/07/17 04:52:45;;;;;;;;;;;17.10;99.90;;;;;;7304799;19;9118;-72
2023/07/17 04:55:14;;;;;;;;;;;17.20;99.90;;;;;;7303547;19;9555;-72
2023/07/17 04:57:43;;;;;;;;;;;17.20;99.90;;;;;;7306049;19;9906;-72
2023/07/17 05:00:13;;;;;;;;;;;17.20;99.90;;;;;;7304894;19;10153;-72
2023/07/17 05:02:42;;;;;;;;;;;17.40;99.90;;;;;;7295777;19;9545;-72
2023/07/17 05:05:12;;;;;;;;;;;17.50;99.90;;;;;;7266642;19;9389;-72
2023/07/17 05:07:44;;;;;;;;;;;17.40;99.90;;;;;;7266946;19;11649;-72
2023/07/17 05:10:14;;;;;;;;;;;17.40;99.90;;;;;;7266542;19;10460;-72
2023/07/17 05:12:43;;;;;;;;;;;17.30;99.90;;;;;;7269085;19;9277;-71
2023/07/17 05:15:13;;;;;;;;;;;17.40;99.90;;;;;;7275485;19;10625;-72
2023/07/17 05:17:42;;;;;;;;;;;17.40;99.90;;;;;;7287494;19;9264;-72
2023/07/17 05:20:12;;;;;;;;;;;17.40;99.90;;;;;;7295167;19;9347;-72
2023/07/17 05:22:45;;;;;;;;;;;17.30;99.90;;;;;;7300958;19;9205;-72
2023/07/17 05:25:14;;;;;;;;;;;17.40;99.90;;;;;;7302619;19;9460;-72
2023/07/17 05:27:43;;;;;;;;;;;17.40;99.90;;;;;;7304111;19;9591;-72
2023/07/17 05:30:14;;;;;;;;;;;17.50;99.90;;;;;;7302938;19;9458;-72
2023/07/17 05:32:43;;;;;;;;;;;17.50;99.90;;;;;;7304322;19;10095;-72
2023/07/17 05:35:12;;;;;;;;;;;17.60;99.90;;;;;;7308713;19;9393;-72
2023/07/17 05:37:43;;;;;;;;;;;17.60;99.90;;;;;;7304438;19;9375;-72
2023/07/17 05:40:14;;;;;;;;;;;17.60;99.90;;;;;;7302178;19;9510;-72
2023/07/17 05:42:43;;;;;;;;;;;17.60;99.90;;;;;;7305536;19;9445;-72
2023/07/17 05:45:12;;;;;;;;;;;17.60;99.90;;;;;;7303315;19;10158;-72
2023/07/17 05:47:43;;;;;;;;;;;17.70;99.90;;;;;;7304403;19;9202;-72
2023/07/17 05:50:13;;;;;;;;;;;17.90;99.90;;;;;;7305180;19;9394;-72
2023/07/17 05:52:44;;;;;;;;;;;17.90;99.90;;;;;;7300962;19;10154;-69
2023/07/17 05:55:13;;;;;;;;;;;18.20;99.90;;;;;;7299978;19;10149;-69
2023/07/17 05:57:42;;;;;;;;;;;18.40;99.90;;;;;;7302524;19;10166;-69
2023/07/17 06:00:14;;;;;;;;;;;18.30;99.90;;;;;;7304000;19;9469;-78
2023/07/17 06:02:43;;;;;;;;;;;18.30;99.90;;;;;;7304759;19;9860;-75
2023/07/17 06:05:14;;;;;;;;;;;18.50;99.90;;;;;;7300571;19;11773;-69
2023/07/17 06:07:46;;;;;;;;;;;18.60;99.90;;;;;;7303087;19;9605;-77
2023/07/17 06:10:15;;;;;;;;;;;18.60;99.90;;;;;;7302019;19;9774;-69
2023/07/17 06:12:44;;;;;;;;;;;18.70;99.90;;;;;;7296300;19;9633;-69
2023/07/17 06:15:15;;;;;;;;;;;18.60;99.90;;;;;;7304475;19;10322;-70
2023/07/17 06:17:44;;;;;;;;;;;18.90;99.90;;;;;;7303100;19;9474;-69
2023/07/17 06:20:13;;;;;;;;;;;19.00;99.90;;;;;;7295343;19;9240;-69
2023/07/17 06:22:42;;;;;;;;;;;19.10;99.90;;;;;;7301015;19;9237;-69
2023/07/17 06:25:14;;;;;;;;;;;19.10;99.90;;;;;;7305554;19;9545;-69
2023/07/17 06:27:43;;;;;;;;;;;19.10;99.90;;;;;;7308862;19;11237;-69
2023/07/17 06:30:13;;;;;;;;;;;19.00;99.90;;;;;;7305265;19;9225;-70
2023/07/17 06:32:42;;;;;;;;;;;19.10;99.90;;;;;;7303740;19;9576;-70
2023/07/17 06:35:12;;;;;;;;;;;19.20;99.90;;;;;;7311965;19;9229;-70
2023/07/17 06:37:41;;;;;;;;;;;19.30;99.90;;;;;;7306909;19;9252;-70
2023/07/17 06:40:13;;;;;;;;;;;19.50;99.90;;;;;;7307035;19;9345;-69
2023/07/17 06:42:43;;;;;;;;;;;19.70;99.90;;;;;;7308992;19;9379;-70
2023/07/17 06:45:12;;;;;;;;;;;19.70;99.90;;;;;;7305228;19;9329;-70
2023/07/17 06:47:41;;;;;;;;;;;19.40;99.90;;;;;;7299669;19;9385;-69
2023/07/17 06:50:11;;;;;;;;;;;19.40;99.90;;;;;;7306745;19;9575;-69
2023/07/17 06:52:41;;;;;;;;;;;19.60;99.90;;;;;;7300414;19;10875;-69
2023/07/17 06:55:14;;;;;;;;;;;19.50;99.90;;;;;;7301168;19;9494;-69
2023/07/17 06:57:43;;;;;;;;;;;19.50;99.90;;;;;;7303516;19;9558;-69
2023/07/17 07:00:13;;;;;;;;;;;19.40;99.90;;;;;;7302464;19;10673;-69
2023/07/17 07:02:42;;;;;;;;;;;19.50;99.90;;;;;;7306044;19;9527;-69
2023/07/17 07:05:12;;;;;;;;;;;19.50;99.90;;;;;;7307556;19;9389;-69
2023/07/17 07:07:41;;;;;;;;;;;19.50;99.90;;;;;;7303440;19;9446;-70
2023/07/17 07:10:13;;;;;;;;;;;19.70;99.90;;;;;;7302750;19;9836;-69
2023/07/17 07:12:42;;;;;;;;;;;20.10;99.90;;;;;;7306555;19;9519;-69
2023/07/17 07:15:13;;;;;;;;;;;20.30;99.90;;;;;;7313160;19;9587;-69
2023/07/17 07:17:42;;;;;;;;;;;20.40;99.90;;;;;;7306563;19;9240;-69
2023/07/17 07:20:12;;;;;;;;;;;20.40;99.90;;;;;;7304829;19;9459;-69
2023/07/17 07:22:41;;;;;;;;;;;20.50;99.90;;;;;;7302202;19;9732;-70
2023/07/17 07:25:13;;;;;;;;;;;20.70;99.90;;;;;;7297849;19;9471;-70
2023/07/17 07:27:42;;;;;;;;;;;20.70;99.90;;;;;;7306440;19;9472;-69
2023/07/17 07:30:12;;;;;;;;;;;21.00;99.90;;;;;;7301732;19;9216;-69
2023/07/17 07:32:41;;;;;;;;;;;21.30;99.90;;;;;;7305633;19;9371;-69
2023/07/17 07:35:11;;;;;;;;;;;21.60;99.90;;;;;;7307675;19;10389;-70
2023/07/17 07:37:41;;;;;;;;;;;21.80;99.90;;;;;;7303055;19;10518;-69
2023/07/17 07:40:15;;;;;;;;;;;22.00;99.90;;;;;;7305659;19;9260;-70
2023/07/17 07:42:45;;;;;;;;;;;22.20;99.90;;;;;;7305026;19;12221;-70
2023/07/17 07:45:16;;;;;;;;;;;22.40;99.90;;;;;;7307159;19;9423;-69
2023/07/17 07:47:45;;;;;;;;;;;22.50;99.90;;;;;;7304703;19;9450;-69
2023/07/17 07:50:14;;;;;;;;;;;22.40;99.90;;;;;;7302322;19;9342;-69
2023/07/17 07:52:43;;;;;;;;;;;22.50;99.90;;;;;;7304257;19;11163;-70
2023/07/17 07:55:15;;;;;;;;;;;22.50;99.90;;;;;;7303638;19;9454;-69
2023/07/17 07:57:44;;;;;;;;;;;22.60;98.00;;;;;;7306415;19;9290;-70
2023/07/17 08:00:14;;;;;;;;;;;22.40;99.90;;;;;;7298253;19;8944;-70
2023/07/17 08:02:43;;;;;;;;;;;22.40;99.90;;;;;;7304908;19;9448;-70
2023/07/17 08:05:12;;;;;;;;;;;22.30;99.90;;;;;;7302331;19;9453;-69
2023/07/17 08:07:41;;;;;;;;;;;22.30;99.90;;;;;;7304645;19;9787;-70
2023/07/17 08:10:11;;;;;;;;;;;22.50;99.90;;;;;;7306259;19;10640;-69
2023/07/17 08:12:43;;;;;;;;;;;22.50;99.90;;;;;;7305480;19;9171;-69
2023/07/17 08:15:13;;;;;;;;;;;22.40;99.90;;;;;;7306774;19;9254;-69
2023/07/17 08:17:41;;;;;;;;;;;22.40;99.80;;;;;;7304585;19;9272;-69
2023/07/17 08:20:11;;;;;;;;;;;22.30;99.70;;;;;;7298534;19;10793;-70
2023/07/17 08:22:40;;;;;;;;;;;22.20;99.90;;;;;;7302680;19;12221;-68
2023/07/17 08:25:11;;;;;;;;;;;22.20;99.90;;;;;;7299819;19;9403;-70
2023/07/17 08:27:39;;;;;;;;;;;22.10;99.90;;;;;;7300743;19;9225;-69
2023/07/17 08:30:13;;;;;;;;;;;22.00;98.50;;;;;;7297365;19;9448;-69
2023/07/17 08:32:42;;;;;;;;;;;21.30;99.30;;;;;;7303854;19;9308;-69
2023/07/17 08:35:12;;;;;;;;;;;21.00;99.90;;;;;;7309446;19;9252;-69
2023/07/17 08:37:41;;;;;;;;;;;20.50;99.90;;;;;;7300516;19;9355;-69
2023/07/17 08:40:13;;;;;;;;;;;20.10;99.90;;;;;;7270351;19;9687;-69
2023/07/17 08:42:47;;;;;;;;;;;19.70;99.90;;;;;;7267894;19;9690;-70
2023/07/17 08:45:24;;;;;;;;;;;19.30;99.90;;;;;;7269437;19;9388;-69
2023/07/17 08:47:55;;;;;;;;;;;18.80;99.90;;;;;;7286778;19;9774;-69
2023/07/17 08:50:26;;;;;;;;;;;18.80;99.90;;;;;;7299376;19;9390;-69
2023/07/17 08:52:58;;;;;;;;;;;19.00;99.90;;;;;;7321961;19;9437;-71
2023/07/17 08:55:31;;;;;;;;;;;18.80;99.90;;;;;;7315388;19;9237;-69
2023/07/17 08:58:05;;;;;;;;;;;18.60;99.90;;;;;;7304183;19;9228;-69
2023/07/17 09:00:39;;;;;;;;;;;18.60;99.90;;;;;;7305480;19;9494;-69
2023/07/17 09:03:08;;;;;;;;;;;18.50;99.90;;;;;;7301338;19;9274;-69
2023/07/17 09:05:40;;;;;;;;;;;18.70;99.90;;;;;;7303287;19;9280;-69
2023/07/17 09:08:09;;;;;;;;;;;18.80;99.90;;;;;;7302337;19;9109;-69
2023/07/17 09:10:39;;;;;;;;;;;19.10;99.90;;;;;;7301923;19;11504;-69
2023/07/17 09:13:08;;;;;;;;;;;19.30;99.90;;;;;;7303818;19;9237;-69
2023/07/17 09:15:41;;;;;;;;;;;19.40;99.90;;;;;;7302718;19;9463;-68
2023/07/17 09:18:10;;;;;;;;;;;19.40;99.90;;;;;;7303136;19;9233;-69
2023/07/17 09:20:39;;;;;;;;;;;19.70;99.90;;;;;;7301087;19;9209;-69
2023/07/17 09:23:08;;;;;;;;;;;19.70;99.90;;;;;;7303673;19;13891;-69
2023/07/17 09:25:37;;;;;;;;;;;19.80;99.90;;;;;;7300619;19;9425;-69
2023/07/17 09:28:06;;;;;;;;;;;19.90;99.90;;;;;;7304580;19;9692;-69
2023/07/17 09:30:35;;;;;;;;;;;20.10;99.90;;;;;;7297554;19;9251;-69
2023/07/17 09:33:12;;;;;;;;;;;20.20;99.90;;;;;;7302903;19;9292;-68
2023/07/17 09:35:41;;;;;;;;;;;20.40;99.90;;;;;;7306432;19;10187;-69
2023/07/17 09:38:13;;;;;;;;;;;20.70;99.90;;;;;;7303366;19;9362;-69
2023/07/17 09:40:42;;;;;;;;;;;20.60;99.90;;;;;;7303354;19;9257;-69
2023/07/17 09:43:11;;;;;;;;;;;20.70;99.90;;;;;;7304550;19;10605;-69
2023/07/17 09:45:42;;;;;;;;;;;21.00;99.90;;;;;;7302565;19;9390;-69
2023/07/17 09:48:15;;;;;;;;;;;21.00;99.90;;;;;;7298581;19;10608;-69
2023/07/17 09:50:44;;;;;;;;;;;20.80;99.90;;;;;;7300513;19;9388;-69
2023/07/17 09:53:14;;;;;;;;;;;20.50;99.90;;;;;;7302808;19;9445;-69
2023/07/17 09:55:46;;;;;;;;;;;20.60;99.90;;;;;;7301255;19;9506;-69
2023/07/17 09:58:20;;;;;;;;;;;20.50;99.90;;;;;;7301032;19;9853;-69
2023/07/17 10:00:52;;;;;;;;;;;20.50;99.90;;;;;;7300084;19;10436;-69
2023/07/17 10:03:27;;;;;;;;;;;20.70;99.90;;;;;;7302339;19;10745;-69
2023/07/17 10:05:57;;;;;;;;;;;20.90;99.90;;;;;;7301805;19;9237;-69
2023/07/17 10:08:30;;;;;;;;;;;21.20;99.90;;;;;;7304082;19;9432;-69
2023/07/17 10:10:59;;;;;;;;;;;21.50;99.90;;;;;;7298643;19;9510;-69
2023/07/17 10:13:29;;;;;;;;;;;21.70;99.90;;;;;;7308157;19;9433;-69
2023/07/17 10:15:59;;;;;;;;;;;21.90;99.90;;;;;;7297547;19;11663;-69
2023/07/17 10:18:33;;;;;;;;;;;22.00;99.90;;;;;;7298373;19;9171;-69
2023/07/17 10:21:04;;;;;;;;;;;22.20;99.90;;;;;;7289925;19;9329;-69
2023/07/17 10:23:33;;;;;;;;;;;22.40;99.20;;;;;;7301326;19;9430;-72
2023/07/17 10:26:11;;;;;;;;;;;22.50;99.90;;;;;;7297726;19;9337;-70
2023/07/17 10:28:42;;;;;;;;;;;22.70;99.60;;;;;;7301390;19;10394;-70
2023/07/17 10:31:14;;;;;;;;;;;22.80;97.90;;;;;;7299828;19;9316;-69
2023/07/17 10:33:51;;;;;;;;;;;22.90;95.90;;;;;;7300773;19;9233;-69
2023/07/17 10:36:20;;;;;;;;;;;23.10;94.60;;;;;;7307292;19;9403;-69
2023/07/17 10:38:54;;;;;;;;;;;23.20;93.50;;;;;;7302616;19;9284;-70
2023/07/17 10:41:30;;;;;;;;;;;23.20;91.40;;;;;;7300868;19;9833;-69
2023/07/17 10:44:03;;;;;;;;;;;22.80;90.90;;;;;;7300996;19;9104;-69
2023/07/17 10:46:34;;;;;;;;;;;22.70;91.30;;;;;;7301619;19;8948;-70
2023/07/17 10:49:14;;;;;;;;;;;22.90;91.40;;;;;;7299189;19;9538;-71
2023/07/17 10:51:47;;;;;;;;;;;22.90;91.20;;;;;;7298504;19;9382;-72
2023/07/17 10:54:18;;;;;;;;;;;23.00;90.80;;;;;;7299228;19;8944;-72
2023/07/17 10:56:48;;;;;;;;;;;23.00;89.10;;;;;;7295240;19;9480;-71
2023/07/17 10:59:19;;;;;;;;;;;23.20;85.80;;;;;;7301216;19;9280;-72
2023/07/17 11:01:48;;;;;;;;;;;23.20;82.30;;;;;;7302441;19;9519;-72
2023/07/17 11:04:20;;;;;;;;;;;23.20;80.40;;;;;;7298324;19;9263;-73
2023/07/17 11:06:50;;;;;;;;;;;23.30;82.90;;;;;;7300061;19;9321;-72
2023/07/17 11:09:19;;;;;;;;;;;23.20;80.70;;;;;;7303500;19;9629;-72
2023/07/17 11:11:48;;;;;;;;;;;23.20;80.70;;;;;;7304478;19;11975;-71
2023/07/17 11:14:20;;;;;;;;;;;23.30;78.70;;;;;;7312557;19;9272;-72
2023/07/17 11:16:49;;;;;;;;;;;23.40;79.80;;;;;;7307251;19;9260;-72
2023/07/17 11:19:21;;;;;;;;;;;23.50;78.00;;;;;;7306850;19;8944;-72
2023/07/17 11:21:51;;;;;;;;;;;23.60;77.60;;;;;;7302380;19;9760;-71
2023/07/17 11:24:20;;;;;;;;;;;23.70;77.60;;;;;;7305638;19;9349;-71
2023/07/17 11:26:50;;;;;;;;;;;23.60;77.60;;;;;;7304930;19;9500;-71
2023/07/17 11:29:19;;;;;;;;;;;23.60;77.50;;;;;;7304720;19;9604;-71
2023/07/17 11:31:48;;;;;;;;;;;23.60;75.50;;;;;;7299859;19;9264;-71
2023/07/17 11:34:25;;;;;;;;;;;23.70;76.50;;;;;;7303135;19;10154;-73
2023/07/17 11:36:54;;;;;;;;;;;23.90;75.40;;;;;;7312830;19;10439;-72
2023/07/17 11:39:25;;;;;;;;;;;24.00;72.50;;;;;;7305275;19;9426;-71
2023/07/17 11:41:56;;;;;;;;;;;24.00;73.70;;;;;;7306403;19;9538;-72
2023/07/17 11:44:27;;;;;;;;;;;24.00;72.70;;;;;;7303434;19;9505;-72
2023/07/17 11:46:59;;;;;;;;;;;24.10;71.60;;;;;;7306816;19;9089;-71
2023/07/17 11:49:31;;;;;;;;;;;24.10;70.80;;;;;;7305523;19;9412;-71
2023/07/17 11:52:00;;;;;;;;;;;24.20;70.50;;;;;;7304313;19;10141;-72
2023/07/17 11:54:31;;;;;;;;;;;24.30;70.30;;;;;;7304844;19;9000;-71
2023/07/17 11:57:03;;;;;;;;;;;24.40;70.40;;;;;;7305300;19;9076;-71
2023/07/17 11:59:32;;;;;;;;;;;24.40;69.80;;;;;;7304436;19;9229;-71
2023/07/17 12:02:01;;;;;;;;;;;24.30;68.50;;;;;;7306527;19;9335;-71
2023/07/17 12:04:40;;;;;;;;;;;24.00;69.70;;;;;;7303522;19;9482;-72
2023/07/17 12:07:18;;;;;;;;;;;24.00;69.80;;;;;;7305005;19;9257;-71
2023/07/17 12:09:49;;;;;;;;;;;23.90;68.20;;;;;;7303125;19;9340;-72
2023/07/17 12:12:18;;;;;;;;;;;23.70;69.90;;;;;;7303077;19;9528;-72
2023/07/17 12:14:47;;;;;;;;;;;23.60;70.30;;;;;;7308385;19;9277;-71
2023/07/17 12:17:17;;;;;;;;;;;23.50;68.80;;;;;;7302722;19;9740;-72
2023/07/17 12:19:48;;;;;;;;;;;23.60;70.40;;;;;;7304715;19;10223;-72
2023/07/17 12:22:17;;;;;;;;;;;23.70;70.70;;;;;;7293921;19;9478;-71
2023/07/17 12:24:47;;;;;;;;;;;23.70;69.70;;;;;;7296997;19;9884;-73
2023/07/17 12:27:16;;;;;;;;;;;23.60;68.90;;;;;;7305272;19;9392;-72
2023/07/17 12:29:45;;;;;;;;;;;23.40;70.90;;;;;;7300876;19;9237;-72
2023/07/17 12:32:14;;;;;;;;;;;23.30;71.70;;;;;;7297303;19;9779;-71
2023/07/17 12:34:43;;;;;;;;;;;23.20;71.60;;;;;;7298065;19;10214;-72
2023/07/17 12:37:15;;;;;;;;;;;23.30;71.40;;;;;;7305873;19;10242;-72
2023/07/17 12:39:44;;;;;;;;;;;23.50;71.10;;;;;;7300599;19;9269;-72
2023/07/17 12:42:14;;;;;;;;;;;23.70;70.30;;;;;;7304006;19;9224;-72
2023/07/17 12:44:44;;;;;;;;;;;23.70;70.30;;;;;;7305054;19;9435;-72
2023/07/17 12:47:13;;;;;;;;;;;23.70;69.90;;;;;;7305648;19;10173;-72
2023/07/17 12:49:42;;;;;;;;;;;23.90;69.20;;;;;;7303880;19;10845;-72
2023/07/17 12:52:11;;;;;;;;;;;23.60;66.60;;;;;;7300496;19;9812;-72
2023/07/17 12:54:43;;;;;;;;;;;23.50;69.50;;;;;;7304921;19;9553;-72
2023/07/17 12:57:12;;;;;;;;;;;23.30;70.60;;;;;;7304816;19;9247;-71
2023/07/17 12:59:41;;;;;;;;;;;23.30;71.30;;;;;;7303641;19;9785;-72
2023/07/17 13:02:11;;;;;;;;;;;23.20;71.90;;;;;;7305755;19;9241;-72
2023/07/17 13:04:40;;;;;;;;;;;23.10;71.30;;;;;;7304407;19;9359;-72
2023/07/17 13:07:09;;;;;;;;;;;23.10;70.10;;;;;;7303687;19;9217;-71
2023/07/17 13:09:38;;;;;;;;;;;23.40;70.40;;;;;;7303453;19;9272;-71
2023/07/17 13:12:12;;;;;;;;;;;23.70;70.00;;;;;;7307528;19;9470;-71
2023/07/17 13:14:41;;;;;;;;;;;23.70;69.20;;;;;;7308464;19;9225;-71
2023/07/17 13:17:10;;;;;;;;;;;23.90;68.30;;;;;;7301286;19;9319;-72
2023/07/17 13:19:39;;;;;;;;;;;24.00;67.30;;;;;;7305191;19;9268;-72
2023/07/17 13:22:08;;;;;;;;;;;24.10;67.00;;;;;;7303630;19;9459;-72
2023/07/17 13:24:37;;;;;;;;;;;24.20;67.00;;;;;;7301768;19;9784;-72
2023/07/17 13:27:10;;;;;;;;;;;24.00;66.80;;;;;;7305345;19;9961;-72
2023/07/17 13:29:41;;;;;;;;;;;24.10;66.90;;;;;;7302040;19;9250;-72
2023/07/17 13:32:11;;;;;;;;;;;23.90;65.80;;;;;;7300892;19;9378;-72
2023/07/17 13:34:41;;;;;;;;;;;23.50;66.00;;;;;;7303626;19;9487;-72
2023/07/17 13:37:10;;;;;;;;;;;23.40;67.40;;;;;;7307366;19;9539;-71
2023/07/17 13:39:39;;;;;;;;;;;23.40;68.00;;;;;;7302446;19;9573;-72
2023/07/17 13:42:08;;;;;;;;;;;23.60;67.90;;;;;;7304863;19;9436;-72
2023/07/17 13:44:37;;;;;;;;;;;23.70;67.30;;;;;;7302435;19;9257;-72
2023/07/17 13:47:09;;;;;;;;;;;23.60;66.70;;;;;;7302817;19;9547;-72
2023/07/17 13:49:39;;;;;;;;;;;23.50;67.40;;;;;;7300510;19;10738;-71
2023/07/17 13:52:09;;;;;;;;;;;23.40;67.10;;;;;;7303070;19;9641;-72
2023/07/17 13:54:38;;;;;;;;;;;23.30;67.10;;;;;;7302866;19;9326;-71
2023/07/17 13:57:08;;;;;;;;;;;23.10;67.40;;;;;;7303372;19;9779;-71
2023/07/17 13:59:37;;;;;;;;;;;23.00;67.90;;;;;;7302544;19;9569;-72
2023/07/17 14:02:08;;;;;;;;;;;23.00;68.00;;;;;;7301117;19;9269;-72
2023/07/17 14:04:37;;;;;;;;;;;22.80;68.50;;;;;;7302485;19;9436;-72
2023/07/17 14:07:07;;;;;;;;;;;22.70;70.20;;;;;;7305082;19;9220;-72
2023/07/17 14:09:36;;;;;;;;;;;22.40;72.20;;;;;;7301715;19;9241;-72
2023/07/17 14:12:05;;;;;;;;;;;22.30;72.60;;;;;;7302774;19;11548;-72
2023/07/17 14:14:34;;;;;;;;;;;22.00;75.20;;;;;;7307500;19;9282;-71
2023/07/17 14:17:03;;;;;;;;;;;21.80;76.90;;;;;;7302440;19;9070;-71
2023/07/17 14:19:35;;;;;;;;;;;21.40;80.30;;;;;;7302124;19;9439;-72
2023/07/17 14:22:04;;;;;;;;;;;21.30;83.20;;;;;;7304056;19;9205;-71
2023/07/17 14:24:33;;;;;;;;;;;21.20;89.40;;;;;;7300472;19;9257;-71
2023/07/17 14:27:02;;;;;;;;;;;21.00;90.10;;;;;;7301470;19;10127;-71
2023/07/17 14:29:31;;;;;;;;;;;20.90;90.70;;;;;;7301576;19;11204;-72
2023/07/17 14:32:00;;;;;;;;;;;20.80;92.40;;;;;;7301420;19;10030;-71
2023/07/17 14:34:29;;;;;;;;;;;20.80;92.80;;;;;;7301339;19;9108;-72
2023/07/17 14:37:01;;;;;;;;;;;20.70;94.00;;;;;;7308186;19;9000;-71
2023/07/17 14:39:30;;;;;;;;;;;20.80;94.50;;;;;;7301077;19;9251;-72
2023/07/17 14:41:59;;;;;;;;;;;20.80;94.70;;;;;;7298581;19;9015;-72
2023/07/17 14:44:28;;;;;;;;;;;20.90;94.80;;;;;;7304058;19;9605;-72